Time;durP1;ratioP1;P1;durP2;ratioP2;P2;SDS_P1;SDS_P2;PMS_P1;PMS_P2;Temp;Humidity;BMP_temperature;BMP_pressure;BME280_temperature;BME280_humidity;BME280_pressure;Samples;Min_cycle;Max_cycle;Signal;HPM_P1;HPM_P2
2023/01/18 00:00:26;;;;;;;3.67;2.90;;;12.60;49.30;;;;;;5086127;28;20447;-77
2023/01/18 00:02:56;;;;;;;6.80;3.03;;;12.60;49.40;;;;;;5086675;28;20440;-77
2023/01/18 00:05:24;;;;;;;3.97;2.73;;;12.60;49.50;;;;;;5091660;28;20464;-77
2023/01/18 00:07:52;;;;;;;3.40;2.60;;;12.60;49.50;;;;;;5094090;28;20446;-77
2023/01/18 00:10:20;;;;;;;4.20;2.90;;;12.60;49.50;;;;;;5086547;28;20429;-77
2023/01/18 00:12:49;;;;;;;4.27;2.70;;;12.60;49.70;;;;;;5088523;28;20472;-78
2023/01/18 00:15:17;;;;;;;3.57;3.03;;;12.60;49.70;;;;;;5085429;28;20517;-78
2023/01/18 00:17:50;;;;;;;3.50;3.17;;;12.60;49.70;;;;;;5087588;28;20447;-77
2023/01/18 00:20:20;;;;;;;3.50;2.97;;;12.60;49.80;;;;;;5092262;28;20454;-76
2023/01/18 00:22:48;;;;;;;3.13;2.87;;;12.60;49.80;;;;;;5093329;28;20417;-77
2023/01/18 00:25:16;;;;;;;3.13;2.77;;;12.60;49.80;;;;;;5089024;28;20456;-78
2023/01/18 00:27:45;;;;;;;4.23;3.17;;;12.60;49.70;;;;;;5092713;28;20480;-77
2023/01/18 00:30:16;;;;;;;3.60;2.70;;;12.50;49.90;;;;;;5093605;28;20935;-77
2023/01/18 00:32:44;;;;;;;3.33;2.70;;;12.50;50.00;;;;;;5084831;28;20479;-77
2023/01/18 00:35:12;;;;;;;3.80;3.00;;;12.50;50.00;;;;;;5090867;28;20476;-77
2023/01/18 00:37:41;;;;;;;2.93;2.73;;;12.60;50.20;;;;;;5094514;28;20444;-76
2023/01/18 00:40:10;;;;;;;5.03;2.80;;;12.50;50.10;;;;;;5094823;28;20444;-76
2023/01/18 00:45:24;;;;;;;2.90;2.70;;;12.50;50.00;;;;;;5094521;28;20500;-77
2023/01/18 00:47:52;;;;;;;3.37;2.70;;;12.50;50.20;;;;;;5087355;28;20445;-77
2023/01/18 00:50:21;;;;;;;3.33;2.73;;;12.50;50.20;;;;;;5098505;28;20441;-77
2023/01/18 00:52:55;;;;;;;3.67;3.10;;;12.50;50.10;;;;;;5092653;28;20525;-77
2023/01/18 00:55:24;;;;;;;4.40;2.70;;;12.50;50.20;;;;;;5096544;28;20479;-77
2023/01/18 00:57:51;;;;;;;2.97;2.67;;;12.50;50.10;;;;;;5098344;28;20437;-76
2023/01/18 01:00:25;;;;;;;3.00;2.80;;;12.50;50.30;;;;;;5100638;28;20436;-77
2023/01/18 01:02:53;;;;;;;3.13;2.17;;;12.50;50.60;;;;;;5099306;28;20435;-77
2023/01/18 01:08:16;;;;;;;5.43;2.60;;;12.40;50.30;;;;;;5098979;28;20459;-77
2023/01/18 01:10:44;;;;;;;3.30;2.80;;;12.40;50.30;;;;;;5105859;28;20424;-77
2023/01/18 01:27:02;;;;;;;4.90;3.23;;;12.40;50.60;;;;;;5092186;28;20455;-78
2023/01/18 01:29:30;;;;;;;3.23;2.97;;;12.40;50.70;;;;;;5108367;28;20450;-76
2023/01/18 01:31:58;;;;;;;6.00;2.87;;;12.30;50.60;;;;;;5106177;28;20446;-77
2023/01/18 01:34:25;;;;;;;3.03;2.73;;;12.30;50.60;;;;;;5097892;28;20480;-77
2023/01/18 01:36:53;;;;;;;3.00;2.70;;;12.40;50.60;;;;;;5106431;28;20540;-77
2023/01/18 01:39:22;;;;;;;3.00;2.70;;;12.30;50.60;;;;;;5090200;28;20455;-78
2023/01/18 01:41:51;;;;;;;3.23;2.80;;;12.30;50.50;;;;;;5099277;28;20440;-77
2023/01/18 01:44:44;;;;;;;4.70;3.27;;;12.30;50.60;;;;;;5098781;28;20467;-77
2023/01/18 01:47:14;;;;;;;3.50;2.63;;;12.30;50.50;;;;;;5102573;28;20454;-77
2023/01/18 01:49:43;;;;;;;3.53;2.90;;;12.30;50.60;;;;;;5107958;28;20448;-78
2023/01/18 01:52:12;;;;;;;6.17;3.20;;;12.30;50.50;;;;;;5096715;28;20531;-77
2023/01/18 01:54:43;;;;;;;4.73;2.70;;;12.30;50.50;;;;;;5093102;28;20472;-78
2023/01/18 01:57:14;;;;;;;3.33;2.43;;;12.30;50.70;;;;;;5100911;28;20475;-77
2023/01/18 01:59:45;;;;;;;5.47;3.23;;;12.30;50.60;;;;;;5101421;28;20452;-77
2023/01/18 02:02:12;;;;;;;3.23;2.93;;;12.30;50.60;;;;;;5105354;28;20451;-77
2023/01/18 02:04:43;;;;;;;3.10;2.43;;;12.30;50.60;;;;;;5105938;28;20475;-77
2023/01/18 02:07:10;;;;;;;4.97;3.20;;;12.30;50.60;;;;;;5100622;28;20445;-77
2023/01/18 02:09:38;;;;;;;4.23;2.93;;;12.20;50.50;;;;;;5098520;28;20453;-77
2023/01/18 02:12:08;;;;;;;4.10;3.10;;;12.20;50.60;;;;;;5090380;28;20462;-77
2023/01/18 02:14:36;;;;;;;9.03;6.97;;;12.30;50.70;;;;;;5094816;28;20485;-77
2023/01/18 02:17:12;;;;;;;8.10;5.83;;;12.20;50.50;;;;;;5095913;28;20457;-78
2023/01/18 02:20:01;;;;;;;9.37;5.43;;;12.20;50.60;;;;;;5094926;28;20455;-77
2023/01/18 02:22:38;;;;;;;7.97;5.37;;;12.20;50.60;;;;;;5090648;28;20544;-77
2023/01/18 02:25:28;;;;;;;6.60;4.83;;;12.20;50.60;;;;;;5090403;28;20487;-77
2023/01/18 02:28:07;;;;;;;8.67;5.40;;;12.20;50.60;;;;;;5086379;28;20455;-77
2023/01/18 02:30:38;;;;;;;7.30;5.10;;;12.20;50.80;;;;;;5091787;28;20451;-77
2023/01/18 02:33:08;;;;;;;5.93;4.63;;;12.20;50.80;;;;;;5099204;28;20495;-77
2023/01/18 02:35:41;;;;;;;7.10;4.70;;;12.20;50.60;;;;;;5097769;28;20473;-77
2023/01/18 02:38:10;;;;;;;7.23;4.80;;;12.20;50.70;;;;;;5093273;28;20444;-76
2023/01/18 02:40:45;;;;;;;6.17;4.70;;;12.20;50.80;;;;;;5095899;28;20451;-77
2023/01/18 02:48:47;;;;;;;7.03;4.33;;;12.10;50.80;;;;;;5084949;28;20452;-77
2023/01/18 02:51:16;;;;;;;7.57;4.90;;;12.10;50.80;;;;;;5097821;28;20459;-77
2023/01/18 02:53:44;;;;;;;5.80;4.10;;;12.10;50.90;;;;;;5091500;28;20477;-77
2023/01/18 02:56:13;;;;;;;5.30;4.30;;;12.10;50.70;;;;;;5096178;28;20449;-78
2023/01/18 02:58:44;;;;;;;4.97;4.20;;;12.10;50.90;;;;;;5090362;28;20461;-77
2023/01/18 03:01:15;;;;;;;8.20;4.70;;;12.10;51.00;;;;;;5097613;28;20460;-77
2023/01/18 03:03:44;;;;;;;5.63;4.53;;;12.10;51.10;;;;;;5092872;28;20476;-77
2023/01/18 03:06:12;;;;;;;5.10;4.37;;;12.10;50.90;;;;;;5095358;28;20464;-77
2023/01/18 03:08:41;;;;;;;6.00;4.30;;;12.10;51.00;;;;;;5094820;28;20448;-77
2023/01/18 03:11:11;;;;;;;5.20;4.30;;;12.10;51.00;;;;;;5090668;28;20449;-77
2023/01/18 03:13:51;;;;;;;5.80;4.07;;;12.10;51.10;;;;;;5093371;28;20472;-77
2023/01/18 03:16:21;;;;;;;5.50;4.33;;;12.00;50.90;;;;;;5093690;28;20476;-77
2023/01/18 03:19:00;;;;;;;5.40;4.10;;;12.10;51.00;;;;;;5095484;28;20467;-77
2023/01/18 03:21:33;;;;;;;6.20;4.23;;;12.10;51.00;;;;;;5090516;28;20445;-78
2023/01/18 03:24:01;;;;;;;6.00;4.30;;;12.10;51.10;;;;;;5091370;28;20499;-77
2023/01/18 03:26:29;;;;;;;7.30;3.73;;;12.00;51.00;;;;;;5085781;28;20457;-77
2023/01/18 03:34:32;;;;;;;5.60;3.80;;;12.00;51.00;;;;;;5091346;28;20487;-77
2023/01/18 03:37:02;;;;;;;4.60;4.00;;;12.00;51.10;;;;;;5093973;28;20449;-77
2023/01/18 03:39:34;;;;;;;5.57;4.13;;;12.00;51.10;;;;;;5092225;28;20452;-77
2023/01/18 03:42:06;;;;;;;5.10;3.77;;;12.00;51.10;;;;;;5092430;28;20459;-76
2023/01/18 03:44:37;;;;;;;4.77;4.23;;;12.00;51.20;;;;;;5090287;28;20460;-77
2023/01/18 03:47:05;;;;;;;5.47;4.10;;;12.00;51.10;;;;;;5086463;28;20460;-78
2023/01/18 03:49:33;;;;;;;4.67;4.07;;;12.00;51.10;;;;;;5087234;28;20445;-77
2023/01/18 03:52:06;;;;;;;4.93;4.00;;;12.00;51.10;;;;;;5093512;28;20449;-77
2023/01/18 03:54:35;;;;;;;4.90;4.00;;;12.00;51.20;;;;;;5086983;28;20480;-77
2023/01/18 03:57:06;;;;;;;4.77;3.40;;;11.90;51.10;;;;;;5092857;28;20449;-77
2023/01/18 03:59:36;;;;;;;4.60;3.73;;;12.00;51.70;;;;;;5088988;28;20453;-77
2023/01/18 04:02:04;;;;;;;3.80;3.40;;;11.90;50.90;;;;;;5092083;28;20451;-77
2023/01/18 04:04:32;;;;;;;5.57;3.87;;;11.90;51.10;;;;;;5089938;28;20494;-77
2023/01/18 04:07:00;;;;;;;4.90;4.00;;;11.90;51.20;;;;;;5092882;28;20453;-77
2023/01/18 04:09:28;;;;;;;7.03;3.90;;;11.90;51.10;;;;;;5091147;28;20455;-77
2023/01/18 04:11:56;;;;;;;4.83;3.83;;;11.90;50.90;;;;;;5091284;28;20470;-77
2023/01/18 04:14:24;;;;;;;6.10;4.10;;;11.90;51.10;;;;;;5096913;28;20499;-77
2023/01/18 04:16:53;;;;;;;5.30;4.00;;;11.90;51.00;;;;;;5099615;28;20481;-77
2023/01/18 04:19:21;;;;;;;5.77;4.10;;;11.80;51.10;;;;;;5094632;28;20458;-77
2023/01/18 04:21:49;;;;;;;4.47;3.90;;;11.80;50.90;;;;;;5101687;28;20441;-77
2023/01/18 04:24:17;;;;;;;5.70;3.73;;;11.80;50.90;;;;;;5101268;28;20484;-77
2023/01/18 04:26:45;;;;;;;4.90;4.23;;;11.80;50.80;;;;;;5096771;28;20457;-77
2023/01/18 04:29:13;;;;;;;4.97;3.90;;;11.80;50.90;;;;;;5098692;28;20448;-77
2023/01/18 04:31:41;;;;;;;5.80;4.20;;;11.80;50.90;;;;;;5099080;28;20445;-77
2023/01/18 04:34:10;;;;;;;4.53;3.70;;;11.80;50.80;;;;;;5097776;28;20504;-78
2023/01/18 04:36:38;;;;;;;6.30;4.43;;;11.70;50.90;;;;;;5106079;28;20439;-78
2023/01/18 04:39:06;;;;;;;4.40;4.00;;;11.70;50.80;;;;;;5097728;28;20452;-77
2023/01/18 04:41:33;;;;;;;4.33;3.93;;;11.70;50.80;;;;;;5100576;28;20447;-77
2023/01/18 04:44:01;;;;;;;4.10;3.70;;;11.70;50.70;;;;;;5100398;28;20461;-77
2023/01/18 04:46:29;;;;;;;5.43;3.97;;;11.70;50.60;;;;;;5088459;28;20459;-77
2023/01/18 04:48:57;;;;;;;5.30;3.87;;;11.70;50.80;;;;;;5096903;28;20474;-77
2023/01/18 04:51:30;;;;;;;5.30;3.90;;;11.60;50.80;;;;;;5097269;28;20456;-77
2023/01/18 04:53:58;;;;;;;4.40;3.80;;;11.70;50.70;;;;;;5090599;28;20481;-77
2023/01/18 04:56:26;;;;;;;4.50;4.03;;;11.60;50.70;;;;;;5097269;28;20535;-77
2023/01/18 04:58:54;;;;;;;3.97;3.60;;;11.70;50.80;;;;;;5097430;28;20445;-77
2023/01/18 05:01:22;;;;;;;4.53;3.90;;;11.70;50.80;;;;;;5098938;28;20452;-77
2023/01/18 05:03:51;;;;;;;10.10;4.40;;;11.60;50.70;;;;;;5095629;28;20476;-78
2023/01/18 05:06:19;;;;;;;4.40;4.00;;;11.70;50.70;;;;;;5097676;28;20451;-77
2023/01/18 05:08:49;;;;;;;7.30;4.10;;;11.60;50.80;;;;;;5091723;28;21080;-77
2023/01/18 05:11:17;;;;;;;5.73;4.17;;;11.60;50.80;;;;;;5097084;28;20458;-77
2023/01/18 05:13:46;;;;;;;4.57;3.77;;;11.60;50.80;;;;;;5099741;28;20485;-78
2023/01/18 05:16:15;;;;;;;5.07;4.30;;;11.60;50.70;;;;;;5095701;28;20459;-77
2023/01/18 05:18:43;;;;;;;5.87;3.93;;;11.60;50.70;;;;;;5097756;28;20460;-77
2023/01/18 05:21:10;;;;;;;5.10;4.30;;;11.60;50.70;;;;;;5096973;28;20441;-77
2023/01/18 05:23:39;;;;;;;4.30;3.90;;;11.60;50.70;;;;;;5097248;28;20451;-78
2023/01/18 05:26:13;;;;;;;3.97;3.50;;;11.60;50.80;;;;;;5089995;28;20481;-77
2023/01/18 05:28:41;;;;;;;4.73;4.17;;;11.50;50.70;;;;;;5098231;28;20450;-77
2023/01/18 05:31:09;;;;;;;4.63;3.67;;;11.50;50.80;;;;;;5094574;28;20479;-77
2023/01/18 05:33:36;;;;;;;4.27;3.77;;;11.60;50.90;;;;;;5093557;28;20444;-77
2023/01/18 05:36:05;;;;;;;4.33;3.93;;;11.60;50.90;;;;;;5093294;28;20473;-77
2023/01/18 05:38:32;;;;;;;5.10;4.60;;;11.50;50.80;;;;;;5097911;28;20470;-78
2023/01/18 05:41:00;;;;;;;11.03;4.20;;;11.50;50.80;;;;;;5096139;28;20449;-77
2023/01/18 05:43:29;;;;;;;8.17;4.00;;;11.50;50.90;;;;;;5099050;28;20455;-78
2023/01/18 05:45:57;;;;;;;4.23;3.70;;;11.50;50.90;;;;;;5087830;28;20437;-78
2023/01/18 05:48:25;;;;;;;4.63;4.17;;;11.50;50.90;;;;;;5099034;28;20447;-77
2023/01/18 05:50:53;;;;;;;5.17;4.20;;;11.50;51.00;;;;;;5090191;28;20506;-77
2023/01/18 05:53:21;;;;;;;4.27;3.87;;;11.50;50.80;;;;;;5098305;28;20451;-77
2023/01/18 05:55:56;;;;;;;10.83;4.20;;;11.50;51.00;;;;;;5093550;28;20469;-77
2023/01/18 05:58:24;;;;;;;8.30;3.50;;;11.50;51.00;;;;;;5094755;28;20695;-77
2023/01/18 06:00:54;;;;;;;4.13;3.70;;;11.50;50.90;;;;;;5091975;28;20445;-77
2023/01/18 06:03:22;;;;;;;4.63;4.00;;;11.50;51.00;;;;;;5095641;28;20449;-77
2023/01/18 06:05:50;;;;;;;4.83;4.00;;;11.50;51.00;;;;;;5093188;28;20452;-77
2023/01/18 06:08:18;;;;;;;4.57;4.17;;;11.40;50.80;;;;;;5096858;28;20498;-77
2023/01/18 06:10:52;;;;;;;5.60;3.90;;;11.40;51.00;;;;;;5096132;28;20459;-77
2023/01/18 06:13:20;;;;;;;4.93;3.63;;;11.40;50.90;;;;;;5099237;28;20464;-77
2023/01/18 06:15:48;;;;;;;5.40;3.77;;;11.40;51.00;;;;;;5091732;28;20473;-77
2023/01/18 06:18:17;;;;;;;3.53;3.20;;;11.40;51.00;;;;;;5094180;28;20468;-77
2023/01/18 06:20:45;;;;;;;4.47;3.80;;;11.40;50.90;;;;;;5092001;28;20441;-77
2023/01/18 06:23:13;;;;;;;4.10;3.70;;;11.40;51.00;;;;;;5091730;28;20454;-77
2023/01/18 06:25:41;;;;;;;6.07;4.10;;;11.40;51.10;;;;;;5093316;28;20460;-77
2023/01/18 06:28:09;;;;;;;3.60;3.30;;;11.40;51.10;;;;;;5092805;28;20449;-78
2023/01/18 06:30:37;;;;;;;6.00;3.80;;;11.40;51.10;;;;;;5094810;28;20452;-77
2023/01/18 06:33:05;;;;;;;4.30;3.90;;;11.40;51.00;;;;;;5093779;28;20457;-77
2023/01/18 06:35:35;;;;;;;4.70;3.70;;;11.40;51.10;;;;;;5096781;28;20560;-77
2023/01/18 06:38:04;;;;;;;4.33;3.53;;;11.30;51.10;;;;;;5089538;28;20463;-75
2023/01/18 06:40:32;;;;;;;4.47;3.97;;;11.40;51.20;;;;;;5097116;28;20449;-77
2023/01/18 06:42:59;;;;;;;3.90;3.50;;;11.40;51.00;;;;;;5085042;28;20457;-78
2023/01/18 06:45:28;;;;;;;8.10;3.70;;;11.40;51.10;;;;;;5095259;28;20461;-78
2023/01/18 06:47:56;;;;;;;5.07;3.70;;;11.40;51.30;;;;;;5094469;28;20456;-78
2023/01/18 06:50:24;;;;;;;8.43;3.70;;;11.40;51.20;;;;;;5089967;28;20454;-77
2023/01/18 06:52:54;;;;;;;3.40;3.10;;;11.30;51.20;;;;;;5092406;28;20448;-78
2023/01/18 06:55:22;;;;;;;3.80;3.50;;;11.30;51.20;;;;;;5092612;28;20526;-76
2023/01/18 06:57:51;;;;;;;4.53;3.73;;;11.30;51.10;;;;;;5091708;28;20460;-77
2023/01/18 07:00:19;;;;;;;3.93;3.50;;;11.30;51.00;;;;;;5093520;28;20467;-77
2023/01/18 07:02:47;;;;;;;4.03;3.43;;;11.30;51.20;;;;;;5090514;28;20452;-78
2023/01/18 07:05:15;;;;;;;7.93;3.70;;;11.30;51.80;;;;;;5092126;28;20473;-78
2023/01/18 07:07:44;;;;;;;6.00;3.90;;;11.30;51.20;;;;;;5095839;28;20448;-76
2023/01/18 07:10:13;;;;;;;3.93;3.53;;;11.30;51.30;;;;;;5091181;28;20448;-77
2023/01/18 07:12:47;;;;;;;5.13;3.80;;;11.30;51.20;;;;;;5090663;28;20506;-77
2023/01/18 07:15:16;;;;;;;4.20;3.60;;;11.30;51.10;;;;;;5088156;28;20479;-77
2023/01/18 07:17:49;;;;;;;5.57;4.17;;;11.30;51.10;;;;;;5094829;28;20484;-77
2023/01/18 07:20:18;;;;;;;4.00;3.47;;;11.30;51.20;;;;;;5098415;28;20505;-78
2023/01/18 07:22:50;;;;;;;3.63;3.33;;;11.20;51.20;;;;;;5091486;28;20441;-78
2023/01/18 07:25:19;;;;;;;4.97;3.87;;;11.30;51.40;;;;;;5088799;28;20476;-78
2023/01/18 07:27:48;;;;;;;4.50;3.33;;;11.30;51.30;;;;;;5091842;28;20448;-78
2023/01/18 07:30:17;;;;;;;4.00;3.27;;;11.20;51.10;;;;;;5091605;28;20444;-78
2023/01/18 07:32:47;;;;;;;3.97;3.30;;;11.20;51.20;;;;;;5088868;28;20456;-77
2023/01/18 07:35:16;;;;;;;4.10;3.40;;;11.30;51.50;;;;;;5091947;28;20475;-78
2023/01/18 07:37:48;;;;;;;4.03;3.63;;;11.20;51.30;;;;;;5088083;28;20455;-78
2023/01/18 07:40:16;;;;;;;4.27;3.87;;;11.30;51.40;;;;;;5091628;28;21015;-78
2023/01/18 07:42:45;;;;;;;4.17;3.40;;;11.20;51.30;;;;;;5095961;28;20445;-78
2023/01/18 07:45:13;;;;;;;4.03;3.53;;;11.20;51.30;;;;;;5092007;28;20476;-75
2023/01/18 07:47:41;;;;;;;3.77;3.27;;;11.20;51.30;;;;;;5095463;28;20459;-79
2023/01/18 07:50:12;;;;;;;4.93;3.90;;;11.20;51.30;;;;;;5095758;28;20452;-75
2023/01/18 07:52:41;;;;;;;2.93;2.73;;;11.20;51.20;;;;;;5075702;28;20454;-78
2023/01/18 07:55:09;;;;;;;3.90;3.50;;;11.30;51.30;;;;;;5091529;28;20473;-78
2023/01/18 07:57:37;;;;;;;5.53;3.73;;;11.30;51.20;;;;;;5092088;28;20451;-79
2023/01/18 08:00:09;;;;;;;3.87;3.50;;;11.20;51.20;;;;;;5095169;28;20455;-79
2023/01/18 08:02:37;;;;;;;3.60;3.30;;;11.20;51.20;;;;;;5090779;28;20444;-78
2023/01/18 08:05:08;;;;;;;3.80;3.50;;;11.20;51.40;;;;;;5090486;28;20530;-78
2023/01/18 08:07:36;;;;;;;3.90;3.20;;;11.30;51.40;;;;;;5095717;28;20448;-77
2023/01/18 08:10:04;;;;;;;3.83;3.53;;;11.30;51.40;;;;;;5095674;28;20449;-78
2023/01/18 08:12:32;;;;;;;4.30;3.67;;;11.20;51.30;;;;;;5089524;28;20450;-78
2023/01/18 08:15:00;;;;;;;3.97;3.23;;;11.20;51.40;;;;;;5089442;28;20477;-78
2023/01/18 08:17:30;;;;;;;4.40;3.60;;;11.20;51.40;;;;;;5090824;28;20545;-78
2023/01/18 08:19:58;;;;;;;4.63;3.60;;;11.20;51.30;;;;;;5093439;28;20485;-78
2023/01/18 08:22:26;;;;;;;3.57;3.27;;;11.20;51.40;;;;;;5094847;28;20472;-78
2023/01/18 08:24:54;;;;;;;4.23;3.53;;;11.20;51.40;;;;;;5091822;28;20475;-77
2023/01/18 08:27:22;;;;;;;6.40;3.70;;;11.30;51.60;;;;;;5095887;28;20444;-78
2023/01/18 08:29:53;;;;;;;3.37;3.13;;;11.30;51.40;;;;;;5092682;28;20506;-78
2023/01/18 08:32:21;;;;;;;4.40;3.40;;;11.20;51.40;;;;;;5095451;28;20453;-77
2023/01/18 08:34:50;;;;;;;3.97;3.63;;;11.30;51.40;;;;;;5093763;28;20471;-77
2023/01/18 08:37:18;;;;;;;4.20;3.63;;;11.30;51.40;;;;;;5093012;28;20477;-77
2023/01/18 08:39:46;;;;;;;4.70;3.60;;;11.30;51.50;;;;;;5093474;28;20447;-78
2023/01/18 08:42:14;;;;;;;5.67;3.57;;;11.30;51.40;;;;;;5092239;28;20460;-78
2023/01/18 08:44:42;;;;;;;3.67;3.27;;;11.40;51.80;;;;;;5094747;28;20476;-78
2023/01/18 08:47:10;;;;;;;5.03;3.50;;;11.50;51.70;;;;;;5092115;28;20436;-78
2023/01/18 08:49:37;;;;;;;3.37;3.10;;;11.50;51.90;;;;;;5088273;28;20449;-78
2023/01/18 08:52:09;;;;;;;3.50;3.20;;;11.50;51.90;;;;;;5087215;28;20453;-78
2023/01/18 08:54:37;;;;;;;4.00;3.43;;;11.60;52.00;;;;;;5087631;28;20476;-77
2023/01/18 08:57:05;;;;;;;4.40;3.77;;;11.70;52.10;;;;;;5082632;28;20472;-76
2023/01/18 08:59:32;;;;;;;9.10;4.07;;;11.80;51.90;;;;;;5086683;28;20433;-78
2023/01/18 09:02:00;;;;;;;3.77;3.37;;;11.80;52.10;;;;;;5094630;28;20453;-76
2023/01/18 09:04:29;;;;;;;4.47;3.90;;;11.90;52.30;;;;;;5086248;28;20502;-77
2023/01/18 09:06:57;;;;;;;4.10;3.70;;;12.00;52.50;;;;;;5094484;28;20455;-76
2023/01/18 09:09:26;;;;;;;3.97;3.67;;;12.20;52.70;;;;;;5088463;28;20449;-77
2023/01/18 09:11:55;;;;;;;4.70;3.83;;;12.40;52.70;;;;;;5090494;28;20437;-78
2023/01/18 09:14:22;;;;;;;4.70;3.73;;;12.60;52.90;;;;;;5087769;28;20460;-76
2023/01/18 09:16:50;;;;;;;4.17;3.70;;;12.70;52.90;;;;;;5086504;28;20483;-77
2023/01/18 09:19:18;;;;;;;5.93;4.00;;;12.90;53.20;;;;;;5094068;28;20452;-77
2023/01/18 09:21:48;;;;;;;4.23;3.83;;;13.00;53.30;;;;;;5078133;28;20443;-78
2023/01/18 09:24:16;;;;;;;5.40;3.90;;;13.10;53.50;;;;;;5089236;28;20457;-77
2023/01/18 09:26:49;;;;;;;4.57;4.17;;;13.20;53.50;;;;;;5085276;28;20445;-76
2023/01/18 09:29:17;;;;;;;4.50;4.13;;;13.30;53.60;;;;;;5090287;28;20444;-76
2023/01/18 09:31:46;;;;;;;5.07;4.00;;;13.40;53.80;;;;;;5085015;28;20442;-77
2023/01/18 09:34:15;;;;;;;5.43;4.37;;;13.50;53.90;;;;;;5082792;28;20544;-78
2023/01/18 09:36:50;;;;;;;4.77;3.93;;;13.60;53.90;;;;;;5091486;28;20562;-78
2023/01/18 09:39:18;;;;;;;4.10;3.70;;;13.60;54.00;;;;;;5085082;28;20441;-77
2023/01/18 09:41:52;;;;;;;6.10;4.03;;;13.60;53.90;;;;;;5086763;28;20438;-77
2023/01/18 09:44:23;;;;;;;7.93;4.60;;;13.70;54.00;;;;;;5087008;28;20464;-76
2023/01/18 09:46:53;;;;;;;4.90;4.43;;;13.70;54.10;;;;;;5091551;28;20436;-77
2023/01/18 09:49:23;;;;;;;5.07;4.57;;;13.70;54.10;;;;;;5086375;28;20426;-76
2023/01/18 09:51:56;;;;;;;5.10;4.60;;;13.80;54.30;;;;;;5087953;28;20445;-77
2023/01/18 09:54:31;;;;;;;5.23;4.50;;;13.80;54.10;;;;;;5086452;28;21025;-77
2023/01/18 09:57:04;;;;;;;7.80;3.93;;;13.80;54.20;;;;;;5088432;28;20463;-76
2023/01/18 09:59:33;;;;;;;4.67;4.27;;;13.90;54.30;;;;;;5088283;28;20460;-77
2023/01/18 10:02:02;;;;;;;5.13;4.43;;;14.00;54.40;;;;;;5083258;28;20442;-78
2023/01/18 10:04:32;;;;;;;5.03;4.53;;;14.10;54.60;;;;;;5086472;28;20469;-76
2023/01/18 10:07:00;;;;;;;7.90;4.70;;;14.20;54.80;;;;;;5088217;28;20456;-77
2023/01/18 10:09:29;;;;;;;7.53;4.77;;;14.40;55.10;;;;;;5091202;28;20461;-77
2023/01/18 10:11:58;;;;;;;8.53;5.27;;;14.50;55.00;;;;;;5094608;28;20455;-77
2023/01/18 10:14:41;;;;;;;8.07;5.33;;;14.70;55.20;;;;;;5087959;28;20544;-77
2023/01/18 10:17:11;;;;;;;8.77;5.23;;;15.00;55.40;;;;;;5101954;28;20472;-78
2023/01/18 10:19:39;;;;;;;9.70;5.43;;;15.20;55.50;;;;;;5094506;28;20461;-79
2023/01/18 10:22:11;;;;;;;7.70;6.13;;;15.40;55.40;;;;;;5099772;28;20447;-79
2023/01/18 10:24:45;;;;;;;7.37;5.93;;;15.60;55.20;;;;;;5102650;28;20491;-78
2023/01/18 10:27:38;;;;;;;8.40;5.70;;;15.80;55.10;;;;;;5102533;28;20451;-78
2023/01/18 10:30:24;;;;;;;7.63;5.80;;;16.00;55.10;;;;;;5086286;28;20456;-79
2023/01/18 10:32:53;;;;;;;7.10;5.60;;;16.20;55.00;;;;;;5102186;28;20457;-79
2023/01/18 10:35:24;;;;;;;8.60;6.20;;;16.40;55.20;;;;;;5103997;28;20468;-79
2023/01/18 10:37:52;;;;;;;7.33;5.63;;;16.60;55.20;;;;;;5102655;28;20477;-79
2023/01/18 10:40:21;;;;;;;6.63;5.60;;;16.80;55.40;;;;;;5104107;28;20452;-79
2023/01/18 10:42:51;;;;;;;9.27;6.20;;;16.90;55.30;;;;;;5096402;28;20472;-79
2023/01/18 10:45:21;;;;;;;6.87;5.80;;;17.10;55.30;;;;;;5094496;28;20484;-78
2023/01/18 10:47:49;;;;;;;7.20;6.20;;;17.30;55.40;;;;;;5096752;28;20512;-78
2023/01/18 10:50:18;;;;;;;7.93;5.73;;;17.40;55.30;;;;;;5094216;28;20532;-79
2023/01/18 10:52:46;;;;;;;8.30;5.50;;;17.50;55.40;;;;;;5102274;28;20441;-76
2023/01/18 10:55:16;;;;;;;7.67;6.20;;;17.70;55.40;;;;;;5095195;28;20473;-77
2023/01/18 10:57:46;;;;;;;7.90;6.37;;;17.80;55.40;;;;;;5099993;28;20483;-79
2023/01/18 11:00:21;;;;;;;7.70;6.23;;;18.00;55.50;;;;;;5092001;28;20460;-77
2023/01/18 11:02:49;;;;;;;6.47;5.60;;;18.20;55.30;;;;;;5094018;28;20450;-75
2023/01/18 11:05:21;;;;;;;12.97;6.37;;;18.30;55.00;;;;;;5092424;28;20471;-76
2023/01/18 11:08:07;;;;;;;6.17;5.50;;;18.50;55.00;;;;;;5092694;28;20440;-75
2023/01/18 11:10:34;;;;;;;9.00;5.40;;;18.70;55.00;;;;;;5095164;28;20448;-75
2023/01/18 11:13:02;;;;;;;6.30;4.93;;;18.90;54.80;;;;;;5090681;28;20457;-77
2023/01/18 11:15:31;;;;;;;5.63;5.10;;;19.10;54.50;;;;;;5087593;28;20471;-76
2023/01/18 11:18:09;;;;;;;7.83;4.77;;;19.20;54.40;;;;;;5090146;28;20472;-76
2023/01/18 11:20:45;;;;;;;7.07;5.10;;;19.40;54.10;;;;;;5088541;28;20448;-77
2023/01/18 11:23:20;;;;;;;7.13;4.87;;;19.60;54.00;;;;;;5088570;28;20463;-77
2023/01/18 11:25:53;;;;;;;6.60;5.10;;;19.70;53.70;;;;;;5085026;28;20479;-78
2023/01/18 11:28:22;;;;;;;15.70;10.57;;;19.90;53.50;;;;;;5094335;28;20418;-79
2023/01/18 11:30:55;;;;;;;11.37;9.60;;;16.00;36.50;;;;;;5088491;28;20459;-76
2023/01/18 11:33:24;;;;;;;20.10;11.40;;;13.00;40.00;;;;;;5084080;28;20457;-77
2023/01/18 11:35:56;;;;;;;13.87;9.73;;;11.20;43.60;;;;;;5089002;28;20459;-79
2023/01/18 11:38:27;;;;;;;22.67;11.90;;;10.10;44.10;;;;;;5083787;28;20492;-78
2023/01/18 11:41:06;;;;;;;16.10;9.40;;;9.80;47.40;;;;;;5087487;28;20448;-79
2023/01/18 11:43:35;;;;;;;12.80;8.13;;;11.10;52.00;;;;;;5089905;28;20440;-79
2023/01/18 11:46:12;;;;;;;10.73;7.20;;;12.90;50.70;;;;;;5092494;28;20464;-79
2023/01/18 11:48:43;;;;;;;12.37;7.50;;;14.40;48.30;;;;;;5097990;28;20507;-78
2023/01/18 11:51:15;;;;;;;10.30;6.93;;;15.60;46.70;;;;;;5089354;28;20454;-77
2023/01/18 11:53:46;;;;;;;7.80;6.40;;;16.50;45.30;;;;;;5092312;28;20463;-79
2023/01/18 11:56:15;;;;;;;11.70;7.13;;;17.30;44.50;;;;;;5090842;28;20461;-78
2023/01/18 11:58:44;;;;;;;11.63;6.93;;;17.90;43.90;;;;;;5091223;28;20473;-78
2023/01/18 12:01:29;;;;;;;8.40;6.70;;;18.40;43.40;;;;;;5097694;28;20453;-78
2023/01/18 12:03:59;;;;;;;7.23;5.90;;;19.00;43.10;;;;;;5090544;28;20464;-78
2023/01/18 12:06:35;;;;;;;6.77;5.37;;;19.40;42.80;;;;;;5088783;28;20452;-76
2023/01/18 12:09:08;;;;;;;8.57;5.90;;;19.80;42.60;;;;;;5096468;28;20447;-78
2023/01/18 12:11:45;;;;;;;10.73;5.53;;;20.20;42.40;;;;;;5091607;28;20464;-78
2023/01/18 12:14:21;;;;;;;6.23;5.60;;;20.50;42.20;;;;;;5084613;28;20479;-78
2023/01/18 12:17:01;;;;;;;6.50;5.57;;;20.80;42.00;;;;;;5091234;28;20470;-78
2023/01/18 12:19:46;;;;;;;7.13;5.00;;;21.10;41.90;;;;;;5082567;28;20481;-78
2023/01/18 12:22:23;;;;;;;7.90;5.57;;;21.40;41.70;;;;;;5079713;28;20444;-77
2023/01/18 12:25:01;;;;;;;5.47;4.90;;;21.70;41.80;;;;;;5088952;28;20452;-78
2023/01/18 12:27:31;;;;;;;5.07;4.57;;;21.80;41.60;;;;;;5102539;28;20530;-78
2023/01/18 12:30:38;;;;;;;7.10;4.60;;;22.10;41.60;;;;;;5089485;28;20868;-79
2023/01/18 12:33:20;;;;;;;7.70;5.00;;;22.30;41.40;;;;;;5099426;28;20534;-78
2023/01/18 12:36:21;;;;;;;10.47;5.10;;;22.50;41.50;;;;;;5089479;28;20488;-77
2023/01/18 12:38:50;;;;;;;5.60;4.33;;;22.70;41.50;;;;;;5094152;28;20471;-75
2023/01/18 12:41:29;;;;;;;5.73;4.20;;;22.80;41.40;;;;;;5095169;28;20858;-79
2023/01/18 12:44:15;;;;;;;6.63;4.00;;;23.00;41.30;;;;;;5106932;28;20475;-79
2023/01/18 12:46:46;;;;;;;4.67;4.27;;;23.20;41.20;;;;;;5096063;28;20443;-78
2023/01/18 12:49:17;;;;;;;7.10;4.13;;;23.30;41.10;;;;;;5099515;28;20447;-77
2023/01/18 12:51:46;;;;;;;6.53;4.33;;;23.40;41.00;;;;;;5093000;28;20460;-78
2023/01/18 12:54:18;;;;;;;4.83;3.93;;;23.50;40.90;;;;;;5092459;28;20476;-79
2023/01/18 12:56:46;;;;;;;9.20;4.77;;;23.60;40.80;;;;;;5090394;28;20452;-78
2023/01/18 14:02:24;;;;;;;7.50;3.30;;;20.20;54.10;;;;;;5135120;27;20314;-76
2023/01/18 14:05:03;;;;;;;3.50;3.20;;;22.90;49.70;;;;;;5044532;28;1197148;-77
2023/01/18 14:07:37;;;;;;;3.40;2.90;;;23.10;48.40;;;;;;5072677;28;20511;-78
2023/01/18 14:10:07;;;;;;;7.00;3.27;;;23.10;47.30;;;;;;5073756;28;20444;-77
2023/01/18 14:12:47;;;;;;;3.53;3.23;;;23.20;46.70;;;;;;5067765;28;20471;-76
2023/01/18 14:15:24;;;;;;;8.00;3.27;;;23.20;46.00;;;;;;5071129;28;20459;-77
2023/01/18 14:17:54;;;;;;;7.77;3.27;;;23.30;46.00;;;;;;5078698;28;20546;-76
2023/01/18 14:20:40;;;;;;;11.07;3.10;;;23.40;46.50;;;;;;5075793;28;20449;-76
2023/01/18 14:23:22;;;;;;;6.83;3.80;;;23.60;46.20;;;;;;5069100;28;20477;-78
2023/01/18 14:25:55;;;;;;;7.43;4.03;;;23.60;46.20;;;;;;5069826;28;20456;-76
2023/01/18 14:28:26;;;;;;;9.33;4.00;;;23.70;46.30;;;;;;5072583;28;20457;-76
2023/01/18 14:30:54;;;;;;;5.60;3.20;;;23.60;46.70;;;;;;5078735;28;20452;-77
2023/01/18 14:33:26;;;;;;;10.03;3.60;;;23.60;46.90;;;;;;5079384;28;20453;-76
2023/01/18 14:35:56;;;;;;;9.57;4.20;;;23.50;46.80;;;;;;5073670;28;20940;-75